sensor_id;sensor_type;location;lat;lon;timestamp;temperature;humidity
11925;DHT22;6022;48.768;18.608;2023-10-19T00:02:08;6.30;99.90
11925;DHT22;6022;48.768;18.608;2023-10-19T00:07:12;6.30;99.90
11925;DHT22;6022;48.768;18.608;2023-10-19T00:09:44;6.30;99.90
11925;DHT22;6022;48.768;18.608;2023-10-19T00:14:44;6.20;99.90
11925;DHT22;6022;48.768;18.608;2023-10-19T00:22:25;6.00;99.90
11925;DHT22;6022;48.768;18.608;2023-10-19T00:27:25;6.40;99.90
11925;DHT22;6022;48.768;18.608;2023-10-19T00:29:58;6.70;99.90
11925;DHT22;6022;48.768;18.608;2023-10-19T00:32:34;7.10;99.90
11925;DHT22;6022;48.768;18.608;2023-10-19T00:35:06;7.10;99.90
11925;DHT22;6022;48.768;18.608;2023-10-19T00:37:55;6.50;99.90
11925;DHT22;6022;48.768;18.608;2023-10-19T00:43:12;6.70;99.90
11925;DHT22;6022;48.768;18.608;2023-10-19T00:45:45;7.00;99.90
11925;DHT22;6022;48.768;18.608;2023-10-19T00:48:16;7.30;99.90
11925;DHT22;6022;48.768;18.608;2023-10-19T00:50:44;7.00;99.90
11925;DHT22;6022;48.768;18.608;2023-10-19T00:53:15;7.20;99.90
11925;DHT22;6022;48.768;18.608;2023-10-19T00:55:45;7.90;99.90
11925;DHT22;6022;48.768;18.608;2023-10-19T01:00:45;7.70;99.90
11925;DHT22;6022;48.768;18.608;2023-10-19T01:03:17;7.50;99.90
11925;DHT22;6022;48.768;18.608;2023-10-19T01:05:46;6.90;99.90
11925;DHT22;6022;48.768;18.608;2023-10-19T01:08:17;7.50;99.90
11925;DHT22;6022;48.768;18.608;2023-10-19T01:10:53;8.10;99.90
11925;DHT22;6022;48.768;18.608;2023-10-19T01:13:21;8.50;99.90
11925;DHT22;6022;48.768;18.608;2023-10-19T01:15:54;8.80;99.90
11925;DHT22;6022;48.768;18.608;2023-10-19T01:18:23;8.50;99.90
11925;DHT22;6022;48.768;18.608;2023-10-19T01:20:57;9.30;99.90
11925;DHT22;6022;48.768;18.608;2023-10-19T01:23:29;8.50;99.90
11925;DHT22;6022;48.768;18.608;2023-10-19T01:25:59;8.40;99.90
11925;DHT22;6022;48.768;18.608;2023-10-19T01:28:35;8.50;99.90
11925;DHT22;6022;48.768;18.608;2023-10-19T01:31:20;7.90;99.90
11925;DHT22;6022;48.768;18.608;2023-10-19T01:34:00;8.70;99.90
11925;DHT22;6022;48.768;18.608;2023-10-19T01:36:37;8.80;99.90
11925;DHT22;6022;48.768;18.608;2023-10-19T01:39:09;8.60;99.90
11925;DHT22;6022;48.768;18.608;2023-10-19T01:41:38;8.20;99.90
11925;DHT22;6022;48.768;18.608;2023-10-19T01:44:08;8.60;99.90
11925;DHT22;6022;48.768;18.608;2023-10-19T01:46:42;8.30;99.90
11925;DHT22;6022;48.768;18.608;2023-10-19T01:49:15;7.50;99.90
11925;DHT22;6022;48.768;18.608;2023-10-19T01:51:56;7.90;99.90
11925;DHT22;6022;48.768;18.608;2023-10-19T01:54:25;8.60;99.90
11925;DHT22;6022;48.768;18.608;2023-10-19T01:56:55;8.20;99.90
11925;DHT22;6022;48.768;18.608;2023-10-19T01:59:27;8.40;99.90
11925;DHT22;6022;48.768;18.608;2023-10-19T02:01:55;8.80;99.90
11925;DHT22;6022;48.768;18.608;2023-10-19T02:04:25;9.20;99.90
11925;DHT22;6022;48.768;18.608;2023-10-19T02:06:53;8.80;99.90
11925;DHT22;6022;48.768;18.608;2023-10-19T02:09:21;8.50;99.90
11925;DHT22;6022;48.768;18.608;2023-10-19T02:11:57;9.10;99.90
11925;DHT22;6022;48.768;18.608;2023-10-19T02:14:26;8.80;99.90
11925;DHT22;6022;48.768;18.608;2023-10-19T02:16:59;7.00;99.90
11925;DHT22;6022;48.768;18.608;2023-10-19T02:19:29;9.20;99.90
11925;DHT22;6022;48.768;18.608;2023-10-19T02:22:00;8.70;99.90
11925;DHT22;6022;48.768;18.608;2023-10-19T02:24:36;8.80;99.90
11925;DHT22;6022;48.768;18.608;2023-10-19T02:27:04;9.00;99.90
11925;DHT22;6022;48.768;18.608;2023-10-19T02:29:35;9.40;99.90
11925;DHT22;6022;48.768;18.608;2023-10-19T02:32:04;9.20;99.90
11925;DHT22;6022;48.768;18.608;2023-10-19T02:34:32;9.30;99.90
11925;DHT22;6022;48.768;18.608;2023-10-19T02:37:02;9.40;99.90
11925;DHT22;6022;48.768;18.608;2023-10-19T02:39:30;8.20;99.90
11925;DHT22;6022;48.768;18.608;2023-10-19T02:41:58;9.20;99.90
11925;DHT22;6022;48.768;18.608;2023-10-19T02:44:28;8.10;99.90
11925;DHT22;6022;48.768;18.608;2023-10-19T02:46:58;9.10;99.90
11925;DHT22;6022;48.768;18.608;2023-10-19T02:49:28;7.90;99.90
11925;DHT22;6022;48.768;18.608;2023-10-19T02:51:58;9.30;99.90
11925;DHT22;6022;48.768;18.608;2023-10-19T02:54:32;8.00;99.90
11925;DHT22;6022;48.768;18.608;2023-10-19T02:57:01;8.80;99.90
11925;DHT22;6022;48.768;18.608;2023-10-19T02:59:29;8.90;99.90
11925;DHT22;6022;48.768;18.608;2023-10-19T03:02:00;9.00;99.90
11925;DHT22;6022;48.768;18.608;2023-10-19T03:07:06;8.40;99.90
11925;DHT22;6022;48.768;18.608;2023-10-19T03:12:05;9.20;99.90
11925;DHT22;6022;48.768;18.608;2023-10-19T03:14:38;9.30;99.90
11925;DHT22;6022;48.768;18.608;2023-10-19T03:17:05;8.30;99.90
11925;DHT22;6022;48.768;18.608;2023-10-19T03:22:05;8.10;99.90
11925;DHT22;6022;48.768;18.608;2023-10-19T03:24:33;8.70;99.90
11925;DHT22;6022;48.768;18.608;2023-10-19T03:27:07;9.40;99.90
11925;DHT22;6022;48.768;18.608;2023-10-19T03:29:46;8.70;99.90
11925;DHT22;6022;48.768;18.608;2023-10-19T03:32:24;8.70;99.90
11925;DHT22;6022;48.768;18.608;2023-10-19T03:37:32;8.90;99.90
11925;DHT22;6022;48.768;18.608;2023-10-19T03:40:03;8.90;99.90
11925;DHT22;6022;48.768;18.608;2023-10-19T03:42:35;8.70;99.90
11925;DHT22;6022;48.768;18.608;2023-10-19T03:45:09;8.90;99.90
11925;DHT22;6022;48.768;18.608;2023-10-19T03:47:41;9.00;99.90
11925;DHT22;6022;48.768;18.608;2023-10-19T03:50:11;9.00;99.90
11925;DHT22;6022;48.768;18.608;2023-10-19T03:52:48;9.10;99.90
11925;DHT22;6022;48.768;18.608;2023-10-19T03:55:17;9.10;99.90
11925;DHT22;6022;48.768;18.608;2023-10-19T03:57:50;8.70;99.90
11925;DHT22;6022;48.768;18.608;2023-10-19T04:00:22;9.10;99.90
11925;DHT22;6022;48.768;18.608;2023-10-19T04:02:54;9.00;99.90
11925;DHT22;6022;48.768;18.608;2023-10-19T04:05:23;9.10;99.90
11925;DHT22;6022;48.768;18.608;2023-10-19T04:07:52;8.80;99.90
11925;DHT22;6022;48.768;18.608;2023-10-19T04:10:35;8.80;99.90
11925;DHT22;6022;48.768;18.608;2023-10-19T04:13:02;8.70;99.90
11925;DHT22;6022;48.768;18.608;2023-10-19T04:15:31;8.90;99.90
11925;DHT22;6022;48.768;18.608;2023-10-19T04:18:03;8.80;99.90
11925;DHT22;6022;48.768;18.608;2023-10-19T04:20:38;8.80;99.90
11925;DHT22;6022;48.768;18.608;2023-10-19T04:23:10;9.20;99.90
11925;DHT22;6022;48.768;18.608;2023-10-19T04:25:40;8.80;99.90
11925;DHT22;6022;48.768;18.608;2023-10-19T04:28:08;8.90;99.90
11925;DHT22;6022;48.768;18.608;2023-10-19T04:30:36;9.20;99.90
11925;DHT22;6022;48.768;18.608;2023-10-19T04:33:05;9.00;99.90
11925;DHT22;6022;48.768;18.608;2023-10-19T04:35:39;9.30;99.90
11925;DHT22;6022;48.768;18.608;2023-10-19T04:38:08;8.90;99.90
11925;DHT22;6022;48.768;18.608;2023-10-19T04:40:38;9.00;99.90
11925;DHT22;6022;48.768;18.608;2023-10-19T04:43:06;9.10;99.90
11925;DHT22;6022;48.768;18.608;2023-10-19T04:45:34;9.10;99.90
11925;DHT22;6022;48.768;18.608;2023-10-19T04:48:10;9.10;99.90
11925;DHT22;6022;48.768;18.608;2023-10-19T04:50:38;7.70;99.90
11925;DHT22;6022;48.768;18.608;2023-10-19T04:53:06;9.10;99.90
11925;DHT22;6022;48.768;18.608;2023-10-19T04:55:35;9.10;99.90
11925;DHT22;6022;48.768;18.608;2023-10-19T04:58:03;9.20;99.90
11925;DHT22;6022;48.768;18.608;2023-10-19T05:00:33;9.20;99.90
11925;DHT22;6022;48.768;18.608;2023-10-19T05:03:00;9.40;99.90
11925;DHT22;6022;48.768;18.608;2023-10-19T05:05:29;9.20;99.90
11925;DHT22;6022;48.768;18.608;2023-10-19T05:07:57;9.20;99.90
11925;DHT22;6022;48.768;18.608;2023-10-19T05:10:27;9.20;99.90
11925;DHT22;6022;48.768;18.608;2023-10-19T05:12:56;9.30;99.90
11925;DHT22;6022;48.768;18.608;2023-10-19T05:15:26;9.00;99.90
11925;DHT22;6022;48.768;18.608;2023-10-19T05:17:55;9.30;99.90
11925;DHT22;6022;48.768;18.608;2023-10-19T05:20:23;9.00;99.90
11925;DHT22;6022;48.768;18.608;2023-10-19T05:22:51;9.20;99.90
11925;DHT22;6022;48.768;18.608;2023-10-19T05:25:18;9.20;99.90
11925;DHT22;6022;48.768;18.608;2023-10-19T05:27:46;9.00;99.90
11925;DHT22;6022;48.768;18.608;2023-10-19T05:30:14;9.10;99.90
11925;DHT22;6022;48.768;18.608;2023-10-19T05:32:42;9.00;99.90
11925;DHT22;6022;48.768;18.608;2023-10-19T05:35:14;9.20;99.90
11925;DHT22;6022;48.768;18.608;2023-10-19T05:37:49;9.10;99.90
11925;DHT22;6022;48.768;18.608;2023-10-19T05:40:18;9.40;99.90
11925;DHT22;6022;48.768;18.608;2023-10-19T05:42:47;9.10;99.90
11925;DHT22;6022;48.768;18.608;2023-10-19T05:45:15;9.40;99.90
11925;DHT22;6022;48.768;18.608;2023-10-19T05:47:44;9.20;99.90
11925;DHT22;6022;48.768;18.608;2023-10-19T05:50:12;9.40;99.90
11925;DHT22;6022;48.768;18.608;2023-10-19T05:52:43;9.50;99.90
11925;DHT22;6022;48.768;18.608;2023-10-19T05:55:10;9.30;99.90
11925;DHT22;6022;48.768;18.608;2023-10-19T05:57:38;9.40;99.90
11925;DHT22;6022;48.768;18.608;2023-10-19T06:00:11;9.20;99.90
11925;DHT22;6022;48.768;18.608;2023-10-19T06:02:43;9.30;99.90
11925;DHT22;6022;48.768;18.608;2023-10-19T06:05:13;9.40;99.90
11925;DHT22;6022;48.768;18.608;2023-10-19T06:07:44;9.40;99.90
11925;DHT22;6022;48.768;18.608;2023-10-19T06:10:21;9.40;99.90
11925;DHT22;6022;48.768;18.608;2023-10-19T06:12:51;9.30;99.90
11925;DHT22;6022;48.768;18.608;2023-10-19T06:15:21;9.50;99.90
11925;DHT22;6022;48.768;18.608;2023-10-19T06:17:55;9.10;99.90
11925;DHT22;6022;48.768;18.608;2023-10-19T06:20:23;9.50;99.90
11925;DHT22;6022;48.768;18.608;2023-10-19T06:22:56;9.50;99.90
11925;DHT22;6022;48.768;18.608;2023-10-19T06:25:33;9.50;99.90
11925;DHT22;6022;48.768;18.608;2023-10-19T06:28:04;9.20;99.90
11925;DHT22;6022;48.768;18.608;2023-10-19T06:30:33;9.40;99.90
11925;DHT22;6022;48.768;18.608;2023-10-19T06:33:01;9.50;99.90
11925;DHT22;6022;48.768;18.608;2023-10-19T06:35:31;9.60;99.90
11925;DHT22;6022;48.768;18.608;2023-10-19T06:38:00;9.60;99.90
11925;DHT22;6022;48.768;18.608;2023-10-19T06:40:28;9.60;99.90
11925;DHT22;6022;48.768;18.608;2023-10-19T06:42:56;9.50;99.90
11925;DHT22;6022;48.768;18.608;2023-10-19T06:45:26;9.40;99.90
11925;DHT22;6022;48.768;18.608;2023-10-19T06:47:54;9.60;99.90
11925;DHT22;6022;48.768;18.608;2023-10-19T06:50:23;9.60;99.90
11925;DHT22;6022;48.768;18.608;2023-10-19T06:52:51;9.80;99.90
11925;DHT22;6022;48.768;18.608;2023-10-19T06:55:21;9.40;99.90
11925;DHT22;6022;48.768;18.608;2023-10-19T06:57:53;9.60;99.90
11925;DHT22;6022;48.768;18.608;2023-10-19T07:00:24;9.50;99.90
11925;DHT22;6022;48.768;18.608;2023-10-19T07:02:57;9.60;99.90
11925;DHT22;6022;48.768;18.608;2023-10-19T07:05:29;9.40;99.90
11925;DHT22;6022;48.768;18.608;2023-10-19T07:08:00;9.50;99.90
11925;DHT22;6022;48.768;18.608;2023-10-19T07:10:30;9.50;99.90
11925;DHT22;6022;48.768;18.608;2023-10-19T07:13:06;9.70;99.90
11925;DHT22;6022;48.768;18.608;2023-10-19T07:15:36;9.50;99.90
11925;DHT22;6022;48.768;18.608;2023-10-19T07:18:05;9.60;99.90
11925;DHT22;6022;48.768;18.608;2023-10-19T07:20:36;9.60;99.90
11925;DHT22;6022;48.768;18.608;2023-10-19T07:23:07;9.70;99.90
11925;DHT22;6022;48.768;18.608;2023-10-19T07:25:50;9.80;99.90
11925;DHT22;6022;48.768;18.608;2023-10-19T07:28:26;10.00;99.90
11925;DHT22;6022;48.768;18.608;2023-10-19T07:30:56;9.70;99.90
11925;DHT22;6022;48.768;18.608;2023-10-19T07:33:57;9.60;99.90
11925;DHT22;6022;48.768;18.608;2023-10-19T07:36:32;9.70;99.90
11925;DHT22;6022;48.768;18.608;2023-10-19T07:39:04;9.80;99.90
11925;DHT22;6022;48.768;18.608;2023-10-19T07:41:48;9.90;99.90
11925;DHT22;6022;48.768;18.608;2023-10-19T07:44:19;9.80;99.90
11925;DHT22;6022;48.768;18.608;2023-10-19T07:46:48;9.70;99.90
11925;DHT22;6022;48.768;18.608;2023-10-19T07:49:17;10.20;99.90
11925;DHT22;6022;48.768;18.608;2023-10-19T07:51:53;10.00;99.90
11925;DHT22;6022;48.768;18.608;2023-10-19T07:54:25;10.00;99.90
11925;DHT22;6022;48.768;18.608;2023-10-19T07:56:55;9.90;99.90
11925;DHT22;6022;48.768;18.608;2023-10-19T07:59:26;10.00;99.90
11925;DHT22;6022;48.768;18.608;2023-10-19T08:01:58;10.00;99.90
11925;DHT22;6022;48.768;18.608;2023-10-19T08:04:37;10.20;99.90
11925;DHT22;6022;48.768;18.608;2023-10-19T08:07:05;10.20;99.90
11925;DHT22;6022;48.768;18.608;2023-10-19T08:09:34;10.00;99.90
11925;DHT22;6022;48.768;18.608;2023-10-19T08:12:03;10.20;99.90
11925;DHT22;6022;48.768;18.608;2023-10-19T08:14:32;10.30;99.90
11925;DHT22;6022;48.768;18.608;2023-10-19T08:17:01;10.30;99.90
11925;DHT22;6022;48.768;18.608;2023-10-19T08:19:34;9.90;99.90
11925;DHT22;6022;48.768;18.608;2023-10-19T08:22:02;10.00;99.90
11925;DHT22;6022;48.768;18.608;2023-10-19T08:24:31;10.10;99.90
11925;DHT22;6022;48.768;18.608;2023-10-19T08:27:02;10.40;99.90
11925;DHT22;6022;48.768;18.608;2023-10-19T08:29:32;10.30;99.90
11925;DHT22;6022;48.768;18.608;2023-10-19T08:32:02;10.10;99.90
11925;DHT22;6022;48.768;18.608;2023-10-19T08:34:36;10.20;99.90
11925;DHT22;6022;48.768;18.608;2023-10-19T08:37:05;10.20;99.90
11925;DHT22;6022;48.768;18.608;2023-10-19T08:39:33;10.40;99.90
11925;DHT22;6022;48.768;18.608;2023-10-19T08:42:08;10.40;99.90
11925;DHT22;6022;48.768;18.608;2023-10-19T08:44:38;10.70;99.90
11925;DHT22;6022;48.768;18.608;2023-10-19T08:47:06;10.40;99.90
11925;DHT22;6022;48.768;18.608;2023-10-19T08:49:34;10.50;99.90
11925;DHT22;6022;48.768;18.608;2023-10-19T08:52:03;10.40;99.90
11925;DHT22;6022;48.768;18.608;2023-10-19T08:54:35;10.50;99.90
11925;DHT22;6022;48.768;18.608;2023-10-19T08:57:02;10.30;99.90
11925;DHT22;6022;48.768;18.608;2023-10-19T08:59:31;10.30;99.90
11925;DHT22;6022;48.768;18.608;2023-10-19T09:02:03;10.30;99.90
11925;DHT22;6022;48.768;18.608;2023-10-19T09:04:41;10.10;99.90
11925;DHT22;6022;48.768;18.608;2023-10-19T09:07:11;10.40;99.90
11925;DHT22;6022;48.768;18.608;2023-10-19T09:09:38;10.40;99.90
11925;DHT22;6022;48.768;18.608;2023-10-19T09:12:08;10.30;99.90
11925;DHT22;6022;48.768;18.608;2023-10-19T09:14:43;10.30;99.90
11925;DHT22;6022;48.768;18.608;2023-10-19T09:17:14;10.30;99.90
11925;DHT22;6022;48.768;18.608;2023-10-19T09:19:44;10.40;99.90
11925;DHT22;6022;48.768;18.608;2023-10-19T09:22:15;10.30;99.90
11925;DHT22;6022;48.768;18.608;2023-10-19T09:24:52;10.50;99.90
11925;DHT22;6022;48.768;18.608;2023-10-19T09:27:23;10.60;99.90
11925;DHT22;6022;48.768;18.608;2023-10-19T09:29:51;10.80;99.90
11925;DHT22;6022;48.768;18.608;2023-10-19T09:32:19;10.60;99.90
11925;DHT22;6022;48.768;18.608;2023-10-19T09:34:48;10.70;99.90
11925;DHT22;6022;48.768;18.608;2023-10-19T09:37:20;10.90;99.90
11925;DHT22;6022;48.768;18.608;2023-10-19T09:39:50;11.10;99.90
11925;DHT22;6022;48.768;18.608;2023-10-19T09:42:20;10.80;99.90
11925;DHT22;6022;48.768;18.608;2023-10-19T09:44:57;10.80;99.90
11925;DHT22;6022;48.768;18.608;2023-10-19T09:47:39;10.80;99.90
11925;DHT22;6022;48.768;18.608;2023-10-19T09:50:15;10.50;99.90
11925;DHT22;6022;48.768;18.608;2023-10-19T09:52:48;11.00;99.90
11925;DHT22;6022;48.768;18.608;2023-10-19T09:55:29;11.10;99.90
11925;DHT22;6022;48.768;18.608;2023-10-19T09:58:16;10.90;99.90
11925;DHT22;6022;48.768;18.608;2023-10-19T10:00:49;10.90;99.90
11925;DHT22;6022;48.768;18.608;2023-10-19T10:06:15;11.20;99.90
11925;DHT22;6022;48.768;18.608;2023-10-19T10:08:48;11.00;99.90
11925;DHT22;6022;48.768;18.608;2023-10-19T10:13:55;11.20;99.90
11925;DHT22;6022;48.768;18.608;2023-10-19T10:16:27;11.00;99.90
11925;DHT22;6022;48.768;18.608;2023-10-19T10:18:59;10.80;99.90
11925;DHT22;6022;48.768;18.608;2023-10-19T10:21:28;11.20;99.90
11925;DHT22;6022;48.768;18.608;2023-10-19T10:23:59;11.20;99.90
11925;DHT22;6022;48.768;18.608;2023-10-19T10:26:30;11.20;99.90
11925;DHT22;6022;48.768;18.608;2023-10-19T10:29:12;11.20;99.90
11925;DHT22;6022;48.768;18.608;2023-10-19T10:31:51;11.20;99.90
11925;DHT22;6022;48.768;18.608;2023-10-19T10:37:08;11.30;99.90
11925;DHT22;6022;48.768;18.608;2023-10-19T10:39:41;11.30;99.90
11925;DHT22;6022;48.768;18.608;2023-10-19T10:42:12;11.30;99.90
11925;DHT22;6022;48.768;18.608;2023-10-19T10:44:45;11.30;99.90
11925;DHT22;6022;48.768;18.608;2023-10-19T10:47:19;11.30;99.90
11925;DHT22;6022;48.768;18.608;2023-10-19T10:49:53;11.30;99.90
11925;DHT22;6022;48.768;18.608;2023-10-19T10:52:36;11.60;99.90
11925;DHT22;6022;48.768;18.608;2023-10-19T10:55:12;11.30;99.90
11925;DHT22;6022;48.768;18.608;2023-10-19T10:57:42;11.60;99.90
11925;DHT22;6022;48.768;18.608;2023-10-19T11:00:14;11.40;99.90
11925;DHT22;6022;48.768;18.608;2023-10-19T11:02:47;11.30;99.90
11925;DHT22;6022;48.768;18.608;2023-10-19T11:05:27;11.40;99.90
11925;DHT22;6022;48.768;18.608;2023-10-19T11:08:09;11.40;99.90
11925;DHT22;6022;48.768;18.608;2023-10-19T11:10:47;11.50;99.90
11925;DHT22;6022;48.768;18.608;2023-10-19T11:13:22;11.50;99.90
11925;DHT22;6022;48.768;18.608;2023-10-19T11:15:53;11.50;99.90
11925;DHT22;6022;48.768;18.608;2023-10-19T11:18:40;11.50;99.90
11925;DHT22;6022;48.768;18.608;2023-10-19T11:21:13;11.50;99.90
11925;DHT22;6022;48.768;18.608;2023-10-19T11:23:48;11.40;99.90
11925;DHT22;6022;48.768;18.608;2023-10-19T11:26:24;11.60;99.90
11925;DHT22;6022;48.768;18.608;2023-10-19T11:29:02;11.50;99.90
11925;DHT22;6022;48.768;18.608;2023-10-19T11:31:33;11.60;99.90
11925;DHT22;6022;48.768;18.608;2023-10-19T11:34:06;11.60;99.90
11925;DHT22;6022;48.768;18.608;2023-10-19T11:36:35;11.60;99.90
11925;DHT22;6022;48.768;18.608;2023-10-19T11:39:04;11.60;99.90
11925;DHT22;6022;48.768;18.608;2023-10-19T11:41:32;11.60;99.90
11925;DHT22;6022;48.768;18.608;2023-10-19T11:44:00;11.40;99.90
11925;DHT22;6022;48.768;18.608;2023-10-19T11:46:28;11.50;99.90
11925;DHT22;6022;48.768;18.608;2023-10-19T11:48:57;11.50;99.90
11925;DHT22;6022;48.768;18.608;2023-10-19T11:51:24;11.50;99.90
11925;DHT22;6022;48.768;18.608;2023-10-19T11:53:56;11.50;99.90
11925;DHT22;6022;48.768;18.608;2023-10-19T11:56:28;11.50;99.90
11925;DHT22;6022;48.768;18.608;2023-10-19T11:58:56;11.50;99.90
11925;DHT22;6022;48.768;18.608;2023-10-19T12:01:34;11.20;99.90
11925;DHT22;6022;48.768;18.608;2023-10-19T12:04:03;11.50;99.90
11925;DHT22;6022;48.768;18.608;2023-10-19T12:06:32;11.40;99.90
11925;DHT22;6022;48.768;18.608;2023-10-19T12:09:00;11.20;99.90
11925;DHT22;6022;48.768;18.608;2023-10-19T12:11:43;11.30;99.90
11925;DHT22;6022;48.768;18.608;2023-10-19T12:14:15;11.20;99.90
11925;DHT22;6022;48.768;18.608;2023-10-19T12:16:43;11.30;99.90
11925;DHT22;6022;48.768;18.608;2023-10-19T12:19:13;11.60;99.90
11925;DHT22;6022;48.768;18.608;2023-10-19T12:21:41;11.30;99.90
11925;DHT22;6022;48.768;18.608;2023-10-19T12:24:09;11.50;99.90
11925;DHT22;6022;48.768;18.608;2023-10-19T12:26:37;11.40;99.90
11925;DHT22;6022;48.768;18.608;2023-10-19T12:29:06;11.30;99.90
11925;DHT22;6022;48.768;18.608;2023-10-19T12:31:37;11.60;99.90
11925;DHT22;6022;48.768;18.608;2023-10-19T12:34:07;11.50;99.90
11925;DHT22;6022;48.768;18.608;2023-10-19T12:36:35;11.90;99.90
11925;DHT22;6022;48.768;18.608;2023-10-19T12:39:03;11.50;99.90
11925;DHT22;6022;48.768;18.608;2023-10-19T12:41:38;11.50;99.90
11925;DHT22;6022;48.768;18.608;2023-10-19T12:44:05;11.50;99.90
11925;DHT22;6022;48.768;18.608;2023-10-19T12:46:39;11.60;99.90
11925;DHT22;6022;48.768;18.608;2023-10-19T12:49:08;11.60;99.90
11925;DHT22;6022;48.768;18.608;2023-10-19T12:51:43;11.50;99.90
11925;DHT22;6022;48.768;18.608;2023-10-19T12:54:11;11.50;99.90
11925;DHT22;6022;48.768;18.608;2023-10-19T12:56:40;11.60;99.90
11925;DHT22;6022;48.768;18.608;2023-10-19T12:59:09;11.60;99.90
11925;DHT22;6022;48.768;18.608;2023-10-19T13:01:38;11.60;99.90
11925;DHT22;6022;48.768;18.608;2023-10-19T13:04:07;11.60;99.90
11925;DHT22;6022;48.768;18.608;2023-10-19T13:06:45;11.90;99.90
11925;DHT22;6022;48.768;18.608;2023-10-19T13:09:14;11.40;99.90
11925;DHT22;6022;48.768;18.608;2023-10-19T13:11:49;11.80;99.90
11925;DHT22;6022;48.768;18.608;2023-10-19T13:14:20;11.40;99.90
11925;DHT22;6022;48.768;18.608;2023-10-19T13:16:47;11.90;99.90
11925;DHT22;6022;48.768;18.608;2023-10-19T13:19:20;11.50;99.90
11925;DHT22;6022;48.768;18.608;2023-10-19T13:21:52;11.70;99.90
11925;DHT22;6022;48.768;18.608;2023-10-19T13:24:22;11.50;99.90
11925;DHT22;6022;48.768;18.608;2023-10-19T13:26:53;11.50;99.90
11925;DHT22;6022;48.768;18.608;2023-10-19T13:29:21;11.70;99.90
11925;DHT22;6022;48.768;18.608;2023-10-19T13:31:50;11.70;99.90
11925;DHT22;6022;48.768;18.608;2023-10-19T13:34:30;11.70;99.90
11925;DHT22;6022;48.768;18.608;2023-10-19T13:37:00;11.50;99.90
11925;DHT22;6022;48.768;18.608;2023-10-19T13:39:29;11.70;99.90
11925;DHT22;6022;48.768;18.608;2023-10-19T13:41:58;11.70;99.90
11925;DHT22;6022;48.768;18.608;2023-10-19T13:44:26;11.30;99.90
11925;DHT22;6022;48.768;18.608;2023-10-19T13:46:53;11.20;99.90
11925;DHT22;6022;48.768;18.608;2023-10-19T13:49:21;11.60;99.90
11925;DHT22;6022;48.768;18.608;2023-10-19T13:51:49;11.30;99.90
11925;DHT22;6022;48.768;18.608;2023-10-19T13:54:17;11.30;99.90
11925;DHT22;6022;48.768;18.608;2023-10-19T13:56:44;11.30;99.90
11925;DHT22;6022;48.768;18.608;2023-10-19T13:59:13;11.20;99.90
11925;DHT22;6022;48.768;18.608;2023-10-19T14:01:43;11.40;99.90
11925;DHT22;6022;48.768;18.608;2023-10-19T14:04:10;11.60;99.90
11925;DHT22;6022;48.768;18.608;2023-10-19T14:06:41;11.60;99.90
11925;DHT22;6022;48.768;18.608;2023-10-19T14:09:09;11.60;99.90
11925;DHT22;6022;48.768;18.608;2023-10-19T14:11:39;11.70;99.90
11925;DHT22;6022;48.768;18.608;2023-10-19T14:14:08;11.80;99.90
11925;DHT22;6022;48.768;18.608;2023-10-19T14:16:38;11.70;99.90
11925;DHT22;6022;48.768;18.608;2023-10-19T14:19:06;11.80;99.90
11925;DHT22;6022;48.768;18.608;2023-10-19T14:21:33;11.60;99.90
11925;DHT22;6022;48.768;18.608;2023-10-19T14:24:05;11.50;99.90
11925;DHT22;6022;48.768;18.608;2023-10-19T14:26:35;11.40;99.90
11925;DHT22;6022;48.768;18.608;2023-10-19T14:29:03;11.60;99.90
11925;DHT22;6022;48.768;18.608;2023-10-19T14:31:31;11.70;99.90
11925;DHT22;6022;48.768;18.608;2023-10-19T14:33:59;11.60;99.90
11925;DHT22;6022;48.768;18.608;2023-10-19T14:36:26;11.60;99.90
11925;DHT22;6022;48.768;18.608;2023-10-19T14:38:53;11.50;99.90
11925;DHT22;6022;48.768;18.608;2023-10-19T14:41:23;11.40;99.90
11925;DHT22;6022;48.768;18.608;2023-10-19T14:43:51;11.30;99.90
11925;DHT22;6022;48.768;18.608;2023-10-19T14:46:19;11.50;99.90
11925;DHT22;6022;48.768;18.608;2023-10-19T14:48:49;11.40;99.90
11925;DHT22;6022;48.768;18.608;2023-10-19T14:51:18;11.40;99.90
11925;DHT22;6022;48.768;18.608;2023-10-19T14:53:46;11.70;99.90
11925;DHT22;6022;48.768;18.608;2023-10-19T14:56:14;11.70;99.90
11925;DHT22;6022;48.768;18.608;2023-10-19T14:58:42;11.50;99.90
11925;DHT22;6022;48.768;18.608;2023-10-19T15:01:09;11.30;99.90
11925;DHT22;6022;48.768;18.608;2023-10-19T15:03:44;11.80;99.90
11925;DHT22;6022;48.768;18.608;2023-10-19T15:06:11;11.60;99.90
11925;DHT22;6022;48.768;18.608;2023-10-19T15:08:41;11.70;99.90
11925;DHT22;6022;48.768;18.608;2023-10-19T15:11:08;11.60;99.90
11925;DHT22;6022;48.768;18.608;2023-10-19T15:13:36;11.40;99.90
11925;DHT22;6022;48.768;18.608;2023-10-19T15:16:09;11.20;99.90
11925;DHT22;6022;48.768;18.608;2023-10-19T15:18:39;11.70;99.90
11925;DHT22;6022;48.768;18.608;2023-10-19T15:21:08;11.80;99.90
11925;DHT22;6022;48.768;18.608;2023-10-19T15:23:36;11.00;99.90
11925;DHT22;6022;48.768;18.608;2023-10-19T15:26:04;11.60;99.90
11925;DHT22;6022;48.768;18.608;2023-10-19T15:28:32;11.40;99.90
11925;DHT22;6022;48.768;18.608;2023-10-19T15:31:00;11.40;99.90
11925;DHT22;6022;48.768;18.608;2023-10-19T15:33:28;11.70;99.90
11925;DHT22;6022;48.768;18.608;2023-10-19T15:35:56;10.90;99.90
11925;DHT22;6022;48.768;18.608;2023-10-19T15:38:24;11.70;99.90
11925;DHT22;6022;48.768;18.608;2023-10-19T15:40:53;11.60;99.90
11925;DHT22;6022;48.768;18.608;2023-10-19T15:43:21;11.70;99.90
11925;DHT22;6022;48.768;18.608;2023-10-19T15:45:50;11.70;99.90
11925;DHT22;6022;48.768;18.608;2023-10-19T15:48:21;10.90;99.90
11925;DHT22;6022;48.768;18.608;2023-10-19T15:50:48;11.20;99.90
11925;DHT22;6022;48.768;18.608;2023-10-19T15:53:16;11.70;99.90
11925;DHT22;6022;48.768;18.608;2023-10-19T15:55:48;10.90;99.90
11925;DHT22;6022;48.768;18.608;2023-10-19T15:58:17;10.90;99.90
11925;DHT22;6022;48.768;18.608;2023-10-19T16:00:46;11.40;99.90
11925;DHT22;6022;48.768;18.608;2023-10-19T16:03:15;11.30;99.90
11925;DHT22;6022;48.768;18.608;2023-10-19T16:05:44;11.70;99.90
11925;DHT22;6022;48.768;18.608;2023-10-19T16:08:13;11.50;99.90
11925;DHT22;6022;48.768;18.608;2023-10-19T16:10:40;11.20;99.90
11925;DHT22;6022;48.768;18.608;2023-10-19T16:13:08;11.60;99.90
11925;DHT22;6022;48.768;18.608;2023-10-19T16:15:36;11.60;99.90
11925;DHT22;6022;48.768;18.608;2023-10-19T16:18:04;11.50;99.90
11925;DHT22;6022;48.768;18.608;2023-10-19T16:20:33;11.10;99.90
11925;DHT22;6022;48.768;18.608;2023-10-19T16:23:02;11.60;99.90
11925;DHT22;6022;48.768;18.608;2023-10-19T16:25:31;11.10;99.90
11925;DHT22;6022;48.768;18.608;2023-10-19T16:27:59;11.20;99.90
11925;DHT22;6022;48.768;18.608;2023-10-19T16:30:27;11.10;99.90
11925;DHT22;6022;48.768;18.608;2023-10-19T16:32:59;11.00;99.90
11925;DHT22;6022;48.768;18.608;2023-10-19T16:35:27;11.60;99.90
11925;DHT22;6022;48.768;18.608;2023-10-19T16:37:56;11.60;99.90